METAR Data
IDs: Format: Raw Decoded Include TAF

Data at: 1226 UTC 24 May 2022

KCRP 241151Z 14013KT 10SM FEW030 BKN160 OVC230 21/19 A2969 RMK AO2 RAE12 SLP052 CB DSNT E-SE S-SW MOV E P0000 60018 70027 T02110194 10239 20211 58035 $